createdAt,value
2019-01-12T00:00:45.835Z,9.77
2019-01-12T00:03:17.938Z,10.20
2019-01-12T00:05:48.735Z,10.10
2019-01-12T00:08:19.160Z,9.80
2019-01-12T00:10:49.453Z,10.33
2019-01-12T00:13:20.655Z,9.93
2019-01-12T00:15:51.470Z,9.70
2019-01-12T00:18:21.736Z,9.83
2019-01-12T00:20:52.144Z,9.30
2019-01-12T00:23:22.443Z,9.63
2019-01-12T00:25:53.252Z,9.23
2019-01-12T00:28:23.638Z,9.37
2019-01-12T00:30:55.191Z,8.67
2019-01-12T00:33:25.468Z,8.20
2019-01-12T00:35:56.358Z,8.20
2019-01-12T00:38:26.630Z,7.10
2019-01-12T00:40:56.968Z,7.03
2019-01-12T00:43:27.264Z,7.37
2019-01-12T00:45:58.888Z,7.00
2019-01-12T00:48:29.175Z,6.70
2019-01-12T00:50:59.531Z,6.30
2019-01-12T00:53:29.839Z,6.03
2019-01-12T00:56:00.583Z,5.97
2019-01-12T00:58:30.926Z,5.67
2019-01-12T01:01:02.279Z,5.70
2019-01-12T01:03:33.418Z,5.50
2019-01-12T01:06:04.121Z,5.40
2019-01-12T01:08:34.450Z,5.17
2019-01-12T01:11:05.054Z,5.33
2019-01-12T01:13:35.358Z,6.13
2019-01-12T01:16:06.277Z,5.37
2019-01-12T01:18:36.551Z,5.13
2019-01-12T01:21:07.476Z,5.50
2019-01-12T01:23:37.785Z,5.43
2019-01-12T01:26:08.075Z,5.73
2019-01-12T01:28:38.464Z,5.43
2019-01-12T01:31:09.174Z,5.50
2019-01-12T01:33:39.486Z,5.70
2019-01-12T01:36:11.771Z,5.40
2019-01-12T01:38:42.053Z,5.47
2019-01-12T01:41:12.322Z,5.57
2019-01-12T01:43:43.450Z,5.00
2019-01-12T01:46:14.260Z,5.47
2019-01-12T01:48:44.529Z,5.47
2019-01-12T01:51:16.480Z,5.60
2019-01-12T01:53:46.776Z,5.67
2019-01-12T01:56:17.063Z,5.87
2019-01-12T01:58:47.374Z,6.00
2019-01-12T02:01:19.382Z,6.27
2019-01-12T02:03:49.711Z,6.13
2019-01-12T02:06:19.984Z,6.80
2019-01-12T02:08:51.620Z,6.30
2019-01-12T02:11:22.337Z,6.97
2019-01-12T02:13:52.991Z,6.43
2019-01-12T02:16:23.315Z,6.93
2019-01-12T02:18:53.590Z,6.70
2019-01-12T02:21:24.456Z,6.87
2019-01-12T02:23:54.729Z,7.20
2019-01-12T02:26:26.265Z,6.90
2019-01-12T02:28:56.637Z,6.90
2019-01-12T02:31:27.534Z,7.33
2019-01-12T02:33:57.832Z,7.70
2019-01-12T02:36:28.256Z,7.80
2019-01-12T02:38:58.677Z,8.60
2019-01-12T02:41:30.358Z,9.10
2019-01-12T02:44:00.712Z,9.30
2019-01-12T02:46:31.021Z,9.43
2019-01-12T02:49:01.295Z,9.50
2019-01-12T02:51:32.121Z,9.43
2019-01-12T02:54:02.459Z,9.63
2019-01-12T02:56:34.270Z,10.13
2019-01-12T02:59:04.666Z,9.67
2019-01-12T03:01:37.005Z,9.97
2019-01-12T03:04:07.373Z,10.30
2019-01-12T03:06:37.640Z,10.33
2019-01-12T03:09:09.389Z,11.00
2019-01-12T03:11:40.185Z,11.03
2019-01-12T03:14:11.573Z,11.23
2019-01-12T03:16:41.851Z,11.53
2019-01-12T03:19:12.504Z,11.77
2019-01-12T03:21:44.517Z,12.50
2019-01-12T03:24:15.510Z,12.37
2019-01-12T03:26:45.813Z,13.17
2019-01-12T03:29:17.617Z,13.07
2019-01-12T03:31:47.904Z,12.57
2019-01-12T03:34:18.179Z,12.30
2019-01-12T03:36:48.494Z,13.47
2019-01-12T03:39:19.234Z,12.70
2019-01-12T03:41:49.533Z,12.90
2019-01-12T03:44:21.213Z,12.57
2019-01-12T03:46:51.476Z,12.47
2019-01-12T03:49:21.768Z,13.00
2019-01-12T03:51:52.132Z,12.93
2019-01-12T03:54:22.882Z,13.07
2019-01-12T03:56:53.170Z,13.13
2019-01-12T03:59:24.026Z,13.73
2019-01-12T04:01:55.946Z,14.27
2019-01-12T04:04:26.258Z,13.40
2019-01-12T04:06:57.032Z,13.63
2019-01-12T04:09:27.753Z,13.87
2019-01-12T04:11:58.112Z,13.57
2019-01-12T04:14:29.262Z,13.93
2019-01-12T04:17:00.058Z,13.93
2019-01-12T04:19:30.333Z,14.77
2019-01-12T04:22:00.747Z,15.37
2019-01-12T04:24:31.036Z,14.90
2019-01-12T04:27:01.304Z,15.73
2019-01-12T04:29:32.917Z,16.70
2019-01-12T04:32:03.674Z,15.80
2019-01-12T04:34:33.956Z,16.10
2019-01-12T04:37:04.238Z,16.30
2019-01-12T04:39:34.500Z,14.80
2019-01-12T04:42:04.795Z,15.07
2019-01-12T04:44:35.792Z,13.83
2019-01-12T04:47:06.679Z,14.53
2019-01-12T04:49:36.963Z,13.80
2019-01-12T04:52:07.345Z,13.07
2019-01-12T04:54:37.610Z,12.80
2019-01-12T04:57:07.894Z,12.77
2019-01-12T04:59:39.294Z,12.30
2019-01-12T05:02:11.448Z,12.50
2019-01-12T05:04:41.773Z,13.00
2019-01-12T05:07:12.053Z,12.73
2019-01-12T05:09:42.382Z,12.73
2019-01-12T05:12:13.168Z,13.03
2019-01-12T05:14:44.757Z,13.03
2019-01-12T05:17:16.078Z,13.13
2019-01-12T05:19:46.352Z,13.23
2019-01-12T05:22:17.185Z,13.53
2019-01-12T05:24:47.480Z,13.07
2019-01-12T05:27:17.830Z,13.43
2019-01-12T05:29:48.113Z,11.93
2019-01-12T05:32:20.279Z,11.30
2019-01-12T05:34:50.560Z,11.53
2019-01-12T05:37:20.870Z,12.10
2019-01-12T05:39:51.150Z,11.90
2019-01-12T05:42:22.408Z,11.30
2019-01-12T05:44:52.751Z,11.47
2019-01-12T05:47:24.388Z,10.77
2019-01-12T05:49:55.552Z,11.30
2019-01-12T05:52:26.472Z,10.70
2019-01-12T05:54:56.745Z,10.87
2019-01-12T05:57:27.057Z,9.90
2019-01-12T05:59:57.322Z,10.23
2019-01-12T06:02:30.029Z,10.17
2019-01-12T06:05:00.299Z,10.60
2019-01-12T06:07:30.600Z,11.03
2019-01-12T06:10:00.902Z,10.60
2019-01-12T06:12:31.721Z,10.47
2019-01-12T06:15:02.008Z,9.77
2019-01-12T06:17:32.271Z,10.50
2019-01-12T06:20:02.617Z,10.20
2019-01-12T06:22:34.480Z,9.30
2019-01-12T06:25:05.526Z,9.63
2019-01-12T06:27:35.869Z,9.27
2019-01-12T06:30:08.912Z,9.00
2019-01-12T06:32:39.875Z,9.30
2019-01-12T06:35:10.459Z,8.73
2019-01-12T06:37:40.739Z,8.50
2019-01-12T06:40:14.854Z,8.40
2019-01-12T06:42:45.691Z,8.80
2019-01-12T06:45:16.590Z,8.63
2019-01-12T06:47:46.856Z,7.97
2019-01-12T06:50:18.687Z,7.40
2019-01-12T06:52:49.038Z,8.00
2019-01-12T06:55:19.760Z,7.53
2019-01-12T06:57:50.024Z,7.63
2019-01-12T07:00:21.357Z,7.97
2019-01-12T07:02:52.924Z,7.17
2019-01-12T07:05:23.267Z,7.80
2019-01-12T07:07:54.042Z,7.70
2019-01-12T07:10:24.330Z,7.47
2019-01-12T07:12:54.620Z,8.10
2019-01-12T07:15:25.457Z,8.50
2019-01-12T07:17:56.289Z,8.37
2019-01-12T07:20:26.580Z,8.97
2019-01-12T07:22:56.864Z,8.70
2019-01-12T07:25:27.142Z,9.33
2019-01-12T07:27:57.413Z,9.43
2019-01-12T07:30:28.851Z,9.50
2019-01-12T07:32:59.623Z,9.97
2019-01-12T07:35:29.886Z,9.43
2019-01-12T07:38:00.188Z,9.80
2019-01-12T07:40:30.464Z,10.63
2019-01-12T07:43:00.759Z,10.97
2019-01-12T07:45:32.439Z,11.50
2019-01-12T07:48:03.353Z,11.10
2019-01-12T07:50:33.626Z,12.40
2019-01-12T07:53:04.068Z,12.37
2019-01-12T07:55:34.362Z,12.83
2019-01-12T07:58:04.748Z,13.20
2019-01-12T08:00:36.445Z,13.63
2019-01-12T08:03:07.896Z,14.80
2019-01-12T08:05:38.193Z,15.07
2019-01-12T08:08:08.465Z,15.93
2019-01-12T08:10:39.283Z,15.60
2019-01-12T08:13:10.329Z,15.97
2019-01-12T08:15:41.678Z,17.43
2019-01-12T08:18:11.959Z,18.23
2019-01-12T08:20:42.231Z,17.67
2019-01-12T08:23:12.534Z,17.73
2019-01-12T08:25:43.375Z,17.80
2019-01-12T08:28:13.639Z,17.23
2019-01-12T08:30:44.965Z,18.13
2019-01-12T08:33:15.241Z,18.17
2019-01-12T08:35:45.521Z,18.63
2019-01-12T08:38:15.837Z,18.20
2019-01-12T08:40:46.681Z,18.20
2019-01-12T08:43:16.981Z,18.73
2019-01-12T08:45:48.510Z,18.53
2019-01-12T08:48:20.029Z,17.57
2019-01-12T08:50:50.692Z,16.77
2019-01-12T08:53:21.092Z,16.93
2019-01-12T08:55:51.906Z,16.67
2019-01-12T08:58:22.188Z,15.83
2019-01-12T09:00:53.894Z,16.53
2019-01-12T09:03:25.416Z,17.30
2019-01-12T09:05:55.740Z,17.17
2019-01-12T09:08:26.558Z,17.10
2019-01-12T09:10:57.182Z,17.40
2019-01-12T09:13:27.443Z,16.43
2019-01-12T09:15:57.859Z,18.07
2019-01-12T09:18:28.844Z,18.53
2019-01-12T09:20:59.108Z,18.13
2019-01-12T09:23:30.314Z,17.90
2019-01-12T09:26:00.739Z,19.07
2019-01-12T09:28:31.036Z,17.87
2019-01-12T09:31:01.347Z,17.90
2019-01-12T09:33:33.453Z,18.13
2019-01-12T09:36:03.724Z,18.80
2019-01-12T09:38:34.130Z,17.83
2019-01-12T09:41:04.507Z,17.60
2019-01-12T09:43:35.468Z,17.83
2019-01-12T09:46:05.999Z,18.47
2019-01-12T09:48:37.564Z,16.87
2019-01-12T09:51:07.856Z,17.07
2019-01-12T09:53:38.630Z,16.43
2019-01-12T09:56:09.023Z,16.77
2019-01-12T09:58:39.683Z,17.30
2019-01-12T10:01:10.361Z,17.17
2019-01-12T10:03:43.033Z,16.67
2019-01-12T10:06:13.329Z,17.03
2019-01-12T10:08:43.996Z,17.20
2019-01-12T10:11:14.303Z,17.13
2019-01-12T10:13:45.400Z,16.33
2019-01-12T10:16:15.757Z,16.07
2019-01-12T10:18:47.616Z,15.77
2019-01-12T10:21:17.921Z,16.07
2019-01-12T10:23:49.243Z,15.80
2019-01-12T10:26:19.513Z,15.93
2019-01-12T10:28:49.862Z,16.57
2019-01-12T10:31:20.136Z,15.63
2019-01-12T10:33:51.566Z,16.50
2019-01-12T10:36:21.817Z,15.87
2019-01-12T10:38:52.168Z,15.97
2019-01-12T10:41:22.466Z,15.50
2019-01-12T10:43:53.372Z,16.23
2019-01-12T10:46:23.679Z,15.57
2019-01-12T10:48:54.462Z,17.00
2019-01-12T10:51:24.771Z,16.57
2019-01-12T10:53:56.382Z,16.37
2019-01-12T10:56:26.680Z,16.50
2019-01-12T10:58:57.027Z,16.63
2019-01-12T11:01:27.328Z,15.53
2019-01-12T11:04:01.373Z,16.60
2019-01-12T11:06:31.667Z,15.77
2019-01-12T11:09:02.013Z,15.77
2019-01-12T11:11:33.778Z,15.93
2019-01-12T11:14:05.187Z,16.63
2019-01-12T11:16:35.474Z,16.37
2019-01-12T11:19:07.116Z,15.40
2019-01-12T11:21:37.432Z,16.77
2019-01-12T11:24:08.451Z,15.17
2019-01-12T11:26:38.751Z,15.97
2019-01-12T11:29:09.154Z,16.13
2019-01-12T11:31:39.461Z,14.60
2019-01-12T11:34:11.882Z,14.57
2019-01-12T11:36:42.199Z,15.87
2019-01-12T11:39:12.484Z,16.47
2019-01-12T11:41:42.767Z,15.53
2019-01-12T11:44:13.521Z,15.87
2019-01-12T11:46:43.852Z,15.20
2019-01-12T11:49:14.147Z,14.97
2019-01-12T11:51:44.442Z,14.40
2019-01-12T11:54:14.748Z,14.87
2019-01-12T11:56:45.564Z,14.60
2019-01-12T11:59:15.847Z,14.00
2019-01-12T12:01:46.177Z,14.60
2019-01-12T12:04:17.332Z,13.50
2019-01-12T12:06:48.608Z,13.77
2019-01-12T12:09:19.524Z,13.90
2019-01-12T12:11:50.205Z,14.97
2019-01-12T12:14:20.499Z,13.90
2019-01-12T12:16:50.934Z,13.07
2019-01-12T12:19:22.110Z,14.07
2019-01-12T12:21:53.330Z,13.40
2019-01-12T12:24:23.623Z,13.37
2019-01-12T12:26:54.002Z,11.97
2019-01-12T12:29:24.938Z,12.77
2019-01-12T12:31:55.306Z,13.20
2019-01-12T12:34:27.305Z,12.80
2019-01-12T12:36:58.840Z,12.67
2019-01-12T12:39:29.700Z,13.07
2019-01-12T12:42:00.225Z,12.43
2019-01-12T12:44:30.533Z,12.83
2019-01-12T12:47:00.831Z,14.57
2019-01-12T12:49:31.623Z,14.13
2019-01-12T12:52:01.890Z,14.50
2019-01-12T12:54:32.272Z,14.83
2019-01-12T12:57:02.659Z,15.00
2019-01-12T12:59:32.945Z,14.97
2019-01-12T13:02:03.329Z,16.20
2019-01-12T13:04:35.548Z,15.43
2019-01-12T13:07:05.872Z,14.93
2019-01-12T13:09:36.177Z,15.03
2019-01-12T13:12:07.140Z,14.37
2019-01-12T13:14:38.033Z,14.80
2019-01-12T13:17:08.716Z,14.90
2019-01-12T13:19:39.033Z,14.07
2019-01-12T13:22:09.502Z,13.00
2019-01-12T13:24:40.314Z,13.87
2019-01-12T13:27:11.682Z,13.00
2019-01-12T13:29:42.016Z,12.80
2019-01-12T13:32:12.327Z,13.10
2019-01-12T13:34:43.123Z,12.87
2019-01-12T13:37:13.467Z,12.57
2019-01-12T13:39:43.851Z,12.47
2019-01-12T13:42:14.944Z,11.33
2019-01-12T13:44:45.759Z,11.50
2019-01-12T13:47:20.753Z,10.77
2019-01-12T13:49:48.137Z,10.03
2019-01-12T13:52:18.432Z,10.67
2019-01-12T13:54:48.757Z,9.27
2019-01-12T13:57:19.522Z,9.10
2019-01-12T13:59:51.088Z,8.57
2019-01-12T14:02:21.908Z,8.77
2019-01-12T14:04:52.582Z,7.63
2019-01-12T14:07:23.123Z,7.67
2019-01-12T14:09:54.076Z,7.13
2019-01-12T14:12:24.791Z,7.10
2019-01-12T14:14:55.095Z,7.10
2019-01-12T14:17:26.983Z,6.77
2019-01-12T14:19:57.794Z,6.53
2019-01-12T14:22:28.199Z,6.57
2019-01-12T14:25:00.826Z,6.70
2019-01-12T14:27:31.222Z,6.47
2019-01-12T14:30:02.403Z,6.10
2019-01-12T14:32:33.935Z,6.07
2019-01-12T14:35:04.643Z,5.80
2019-01-12T14:37:35.038Z,5.60
2019-01-12T14:40:07.449Z,5.73
2019-01-12T14:42:37.786Z,5.47
2019-01-12T14:45:10.760Z,5.27
2019-01-12T14:47:42.366Z,5.20
2019-01-12T14:50:13.246Z,5.43
2019-01-12T14:52:43.525Z,5.30
2019-01-12T14:55:14.604Z,4.67
2019-01-12T14:57:44.967Z,5.27
2019-01-12T15:00:18.250Z,4.90
2019-01-12T15:02:48.538Z,5.20
2019-01-12T15:05:23.185Z,4.50
2019-01-12T15:07:53.542Z,4.40
2019-01-12T15:10:24.483Z,3.87
2019-01-12T15:12:54.958Z,4.23
2019-01-12T15:15:25.674Z,4.30
2019-01-12T15:17:56.106Z,3.80
2019-01-12T15:20:32.747Z,4.37
2019-01-12T15:23:03.078Z,4.30
2019-01-12T15:25:33.513Z,4.10
2019-01-12T15:28:09.033Z,4.30
2019-01-12T15:30:36.369Z,4.27
2019-01-12T15:33:08.601Z,4.70
2019-01-12T15:35:40.540Z,4.47
2019-01-12T15:38:12.347Z,4.30
2019-01-12T15:40:43.251Z,4.03
2019-01-12T15:43:13.657Z,4.10
2019-01-12T15:45:43.955Z,4.50
2019-01-12T15:48:14.635Z,4.00
2019-01-12T15:50:45.461Z,4.20
2019-01-12T15:53:15.738Z,4.60
2019-01-12T15:55:46.675Z,4.40
2019-01-12T15:58:16.983Z,4.77
2019-01-12T16:00:47.243Z,4.97
2019-01-12T16:03:17.529Z,5.03
2019-01-12T16:05:48.862Z,5.13
2019-01-12T16:08:19.383Z,5.10
2019-01-12T16:10:49.656Z,4.90
2019-01-12T16:13:20.061Z,5.40
2019-01-12T16:15:50.799Z,5.30
2019-01-12T16:18:21.163Z,5.63
2019-01-12T16:20:51.553Z,5.53
2019-01-12T16:23:21.952Z,5.67
2019-01-12T16:25:52.756Z,5.37
2019-01-12T16:28:23.630Z,5.17
2019-01-12T16:30:53.930Z,5.40
2019-01-12T16:33:24.333Z,5.90
2019-01-12T16:35:55.192Z,6.30
2019-01-12T16:38:25.598Z,6.70
2019-01-12T16:40:55.884Z,5.93
2019-01-12T16:43:26.947Z,6.23
2019-01-12T16:45:57.726Z,5.73
2019-01-12T16:48:28.146Z,5.57
2019-01-12T16:50:58.435Z,5.37
2019-01-12T16:53:28.711Z,5.40
2019-01-12T16:55:59.517Z,5.53
2019-01-12T16:58:30.714Z,5.80
2019-01-12T17:01:02.499Z,5.63
2019-01-12T17:03:32.775Z,5.63
2019-01-12T17:06:04.238Z,6.03
2019-01-12T17:08:34.545Z,6.70
2019-01-12T17:11:04.939Z,6.00
2019-01-12T17:13:35.199Z,6.23
2019-01-12T17:16:08.656Z,6.60
2019-01-12T17:18:39.888Z,8.00
2019-01-12T17:21:10.177Z,7.07
2019-01-12T17:23:40.457Z,7.70
2019-01-12T17:26:11.243Z,7.47
2019-01-12T17:28:41.596Z,7.73
2019-01-12T17:31:12.458Z,8.57
2019-01-12T17:33:42.777Z,9.10
2019-01-12T17:36:13.743Z,9.13
2019-01-12T17:38:44.086Z,10.17
2019-01-12T17:41:14.461Z,11.00
2019-01-12T17:43:44.888Z,10.67
2019-01-12T17:46:15.692Z,10.63
2019-01-12T17:48:46.587Z,10.73
2019-01-12T17:51:16.911Z,10.90
2019-01-12T17:53:47.313Z,11.20
2019-01-12T17:56:18.065Z,11.07
2019-01-12T17:58:49.544Z,11.43
2019-01-12T18:01:20.823Z,11.10
2019-01-12T18:03:52.427Z,11.13
2019-01-12T18:06:24.501Z,11.23
2019-01-12T18:08:55.234Z,11.67
2019-01-12T18:11:25.554Z,10.90
2019-01-12T18:13:55.875Z,10.97
2019-01-12T18:16:26.719Z,11.27
2019-01-12T18:18:57.886Z,11.23
2019-01-12T18:21:28.198Z,10.77
2019-01-12T18:23:58.490Z,11.10
2019-01-12T18:26:29.274Z,10.93
2019-01-12T18:28:59.600Z,11.07
2019-01-12T18:31:29.952Z,10.90
2019-01-12T18:34:00.309Z,11.37
2019-01-12T18:36:32.504Z,11.00
2019-01-12T18:39:02.971Z,11.07
2019-01-12T18:41:33.430Z,11.00
2019-01-12T18:44:03.910Z,11.20
2019-01-12T18:46:35.140Z,11.47
2019-01-12T18:49:05.443Z,10.23
2019-01-12T18:51:37.224Z,9.43
2019-01-12T18:54:07.633Z,9.00
2019-01-12T18:56:38.501Z,9.47
2019-01-12T18:59:08.755Z,9.70
2019-01-12T19:01:39.162Z,8.63
2019-01-12T19:04:09.467Z,8.80
2019-01-12T19:06:41.504Z,9.27
2019-01-12T19:09:11.800Z,9.93
2019-01-12T19:11:42.491Z,8.87
2019-01-12T19:14:12.794Z,8.90
2019-01-12T19:16:43.660Z,8.27
2019-01-12T19:19:13.956Z,6.37
2019-01-12T19:21:45.453Z,4.60
2019-01-12T19:24:15.729Z,3.57
2019-01-12T19:26:47.010Z,3.20
2019-01-12T19:29:17.291Z,3.10
2019-01-12T19:31:47.585Z,2.80
2019-01-12T19:34:18.228Z,2.23
2019-01-12T19:36:49.067Z,2.20
2019-01-12T19:39:20.787Z,2.33
2019-01-12T19:41:51.830Z,1.90
2019-01-12T19:44:22.135Z,2.17
2019-01-12T19:46:52.901Z,2.33
2019-01-12T19:49:23.319Z,3.00
2019-01-12T19:51:53.601Z,3.90
2019-01-12T19:54:23.891Z,4.70
2019-01-12T19:56:54.744Z,5.10
2019-01-12T19:59:25.514Z,5.00
2019-01-12T20:01:55.789Z,5.07
2019-01-12T20:04:26.361Z,5.30
2019-01-12T20:06:57.324Z,5.60
2019-01-12T20:09:27.644Z,6.53
2019-01-12T20:11:58.507Z,7.13
2019-01-12T20:14:28.813Z,7.33
2019-01-12T20:16:59.088Z,8.13
2019-01-12T20:19:29.489Z,8.83
2019-01-12T20:21:59.814Z,9.17
2019-01-12T20:24:30.651Z,9.20
2019-01-12T20:27:01.073Z,9.53
2019-01-12T20:29:31.382Z,9.10
2019-01-12T20:32:30.133Z,8.37
2019-01-12T20:35:25.240Z,8.63
2019-01-12T20:38:22.503Z,7.30
2019-01-12T20:41:41.224Z,7.27
2019-01-12T20:44:58.625Z,6.30
2019-01-12T20:47:57.144Z,5.63
2019-01-12T20:51:11.005Z,5.80
2019-01-12T20:54:29.442Z,5.67
2019-01-12T20:57:20.165Z,6.30
2019-01-12T21:00:37.272Z,5.97
2019-01-12T21:03:40.913Z,5.90
2019-01-12T21:06:46.298Z,5.87
2019-01-12T21:09:39.175Z,5.90
2019-01-12T21:12:43.730Z,6.23
2019-01-12T21:15:38.311Z,6.37
2019-01-12T21:18:09.401Z,7.73
2019-01-12T21:20:39.716Z,6.90
2019-01-12T21:23:10.508Z,7.23
2019-01-12T21:25:43.189Z,7.27
2019-01-12T21:28:13.486Z,5.90
2019-01-12T21:30:43.784Z,5.57
2019-01-12T21:33:14.564Z,5.77
2019-01-12T21:35:45.005Z,5.40
2019-01-12T21:38:15.281Z,4.60
2019-01-12T21:40:48.139Z,5.10
2019-01-12T21:43:18.951Z,5.03
2019-01-12T21:45:49.690Z,4.50
2019-01-12T21:48:20.031Z,5.33
2019-01-12T21:50:50.361Z,4.90
2019-01-12T21:53:21.199Z,4.53
2019-01-12T21:55:52.809Z,4.17
2019-01-12T21:58:23.231Z,4.30
2019-01-12T22:00:53.534Z,4.37
2019-01-12T22:03:24.345Z,4.57
2019-01-12T22:05:54.733Z,5.20
2019-01-12T22:08:25.084Z,5.27
2019-01-12T22:10:56.615Z,6.13
2019-01-12T22:13:27.803Z,6.50
2019-01-12T22:15:58.109Z,7.17
2019-01-12T22:18:28.506Z,7.73
2019-01-12T22:20:59.269Z,8.37
2019-01-12T22:23:30.105Z,8.87
2019-01-12T22:26:00.441Z,9.00
2019-01-12T22:28:30.766Z,9.30
2019-01-12T22:31:01.531Z,9.47
2019-01-12T22:33:32.326Z,9.67
2019-01-12T22:36:02.718Z,9.63
2019-01-12T22:38:33.191Z,9.40
2019-01-12T22:41:03.638Z,8.60
2019-01-12T22:43:34.536Z,9.50
2019-01-12T22:46:05.742Z,8.60
2019-01-12T22:48:36.040Z,8.70
2019-01-12T22:51:07.912Z,8.80
2019-01-12T22:53:38.655Z,8.87
2019-01-12T22:56:09.053Z,8.53
2019-01-12T22:58:39.352Z,8.70
2019-01-12T23:01:35.040Z,7.80
2019-01-12T23:04:05.717Z,7.93
2019-01-12T23:06:36.696Z,8.70
2019-01-12T23:09:11.164Z,8.63
2019-01-12T23:11:42.356Z,9.20
2019-01-12T23:14:13.639Z,9.53
2019-01-12T23:16:45.560Z,9.60
2019-01-12T23:19:16.023Z,10.30
2019-01-12T23:21:46.380Z,10.43
2019-01-12T23:24:16.748Z,11.80
2019-01-12T23:26:47.751Z,12.03
2019-01-12T23:29:18.154Z,12.20
2019-01-12T23:31:48.456Z,12.57
2019-01-12T23:34:19.779Z,13.33
2019-01-12T23:36:50.618Z,13.50
2019-01-12T23:39:20.971Z,13.47
2019-01-12T23:41:51.347Z,12.77
2019-01-12T23:44:21.662Z,12.57
2019-01-12T23:46:52.101Z,13.43
2019-01-12T23:49:22.967Z,14.13
2019-01-12T23:51:53.270Z,13.70
2019-01-12T23:54:24.386Z,12.60
2019-01-12T23:56:54.664Z,13.00
2019-01-12T23:59:24.956Z,13.13
